Time;durP1;ratioP1;P1;durP2;ratioP2;P2;SDS_P1;SDS_P2;PMS_P1;PMS_P2;Temp;Humidity;BMP_temperature;BMP_pressure;BME280_temperature;BME280_humidity;BME280_pressure;Samples;Min_cycle;Max_cycle;Signal;HPM_P1;HPM_P2
2023/01/14 00:01:12;;;;;;;14.60;4.63;;;8.30;99.90;;;;;;5025999;28;20524;-79
2023/01/14 00:03:39;;;;;;;15.03;4.00;;;8.30;99.90;;;;;;5020042;28;20474;-77
2023/01/14 00:06:06;;;;;;;11.63;3.03;;;8.40;99.90;;;;;;5019045;28;20522;-78
2023/01/14 00:08:35;;;;;;;18.17;3.80;;;8.30;99.90;;;;;;5029896;28;20898;-77
2023/01/14 00:11:03;;;;;;;13.90;4.10;;;8.30;99.90;;;;;;5011811;28;20447;-77
2023/01/14 00:13:32;;;;;;;12.97;3.40;;;8.40;99.90;;;;;;5026199;28;20545;-78
2023/01/14 00:15:59;;;;;;;12.87;3.33;;;8.40;99.90;;;;;;5008461;28;20512;-79
2023/01/14 00:18:26;;;;;;;13.53;3.60;;;8.40;99.90;;;;;;5008339;28;20482;-79
2023/01/14 00:21:01;;;;;;;20.60;4.23;;;8.40;99.90;;;;;;5015507;28;20506;-78
2023/01/14 00:23:29;;;;;;;14.23;3.17;;;8.40;99.90;;;;;;5009383;28;20476;-78
2023/01/14 00:26:03;;;;;;;13.10;4.10;;;8.40;99.90;;;;;;5014882;28;20450;-79
2023/01/14 00:28:31;;;;;;;24.57;5.07;;;8.30;99.90;;;;;;5005384;28;20445;-79
2023/01/14 00:31:06;;;;;;;19.37;5.00;;;8.30;99.90;;;;;;5016906;28;20502;-80
2023/01/14 00:33:34;;;;;;;10.93;3.47;;;8.30;99.90;;;;;;5010202;28;20526;-79
2023/01/14 00:36:01;;;;;;;14.70;3.63;;;8.20;99.90;;;;;;5017082;28;20536;-79
2023/01/14 00:38:28;;;;;;;10.87;3.70;;;8.20;99.90;;;;;;5000404;28;21064;-80
2023/01/14 00:41:10;;;;;;;14.60;3.63;;;8.20;99.90;;;;;;5013381;28;20489;-81
2023/01/14 00:43:39;;;;;;;12.80;3.80;;;8.20;99.90;;;;;;5005480;28;20465;-80
2023/01/14 00:46:07;;;;;;;11.83;3.97;;;8.20;99.90;;;;;;5021341;28;20442;-80
2023/01/14 00:48:34;;;;;;;14.30;3.67;;;8.20;99.90;;;;;;5000403;28;20455;-80
2023/01/14 00:51:01;;;;;;;26.03;4.60;;;8.20;99.90;;;;;;5010143;28;20454;-81
2023/01/14 00:53:29;;;;;;;18.17;3.30;;;8.10;99.90;;;;;;5004854;28;20477;-81
2023/01/14 00:55:56;;;;;;;19.50;5.03;;;8.10;99.90;;;;;;5004885;28;20455;-81
2023/01/14 00:58:25;;;;;;;12.80;3.90;;;8.10;99.90;;;;;;5013610;28;20484;-81
2023/01/14 01:00:54;;;;;;;13.57;4.00;;;8.20;99.90;;;;;;5000066;28;20438;-81
2023/01/14 01:03:22;;;;;;;16.23;3.37;;;8.30;99.90;;;;;;5012139;28;20474;-80
2023/01/14 01:05:49;;;;;;;17.70;3.97;;;8.30;99.90;;;;;;5007153;28;20522;-79
2023/01/14 01:08:21;;;;;;;18.23;4.57;;;8.30;99.90;;;;;;5007061;28;20457;-80
2023/01/14 01:10:49;;;;;;;17.57;4.07;;;8.30;99.90;;;;;;5017341;28;20446;-80
2023/01/14 01:13:17;;;;;;;15.97;3.70;;;8.30;99.90;;;;;;5018353;28;20470;-80
2023/01/14 01:15:46;;;;;;;17.70;4.60;;;8.30;99.90;;;;;;5018519;28;20453;-80
2023/01/14 01:18:13;;;;;;;11.10;4.10;;;8.20;99.90;;;;;;5007307;28;20487;-80
2023/01/14 01:20:40;;;;;;;15.40;4.27;;;8.20;99.90;;;;;;5008952;28;20533;-80
2023/01/14 01:23:08;;;;;;;17.37;4.20;;;8.30;99.90;;;;;;5006559;28;20470;-79
2023/01/14 01:25:35;;;;;;;17.13;3.57;;;8.30;99.90;;;;;;5007710;28;20875;-79
2023/01/14 01:28:02;;;;;;;13.13;4.00;;;8.30;99.90;;;;;;5014386;28;20533;-80
2023/01/14 01:30:29;;;;;;;14.10;4.27;;;8.30;99.90;;;;;;5003463;28;20453;-79
2023/01/14 01:32:57;;;;;;;18.90;5.03;;;8.30;99.90;;;;;;5018442;28;20549;-81
2023/01/14 01:35:25;;;;;;;14.60;3.40;;;8.40;99.90;;;;;;5018949;28;20484;-77
2023/01/14 01:37:52;;;;;;;15.70;3.43;;;8.30;99.90;;;;;;5019743;28;20453;-80
2023/01/14 01:40:20;;;;;;;22.10;4.57;;;8.30;99.90;;;;;;5017403;28;20461;-80
2023/01/14 01:42:55;;;;;;;20.63;4.60;;;8.30;99.90;;;;;;5019161;28;20558;-80
2023/01/14 01:45:43;;;;;;;16.37;4.23;;;8.30;99.90;;;;;;5017571;28;21019;-78
2023/01/14 01:48:14;;;;;;;21.97;4.00;;;8.30;99.90;;;;;;5017457;28;20569;-76
2023/01/14 01:50:42;;;;;;;22.07;4.30;;;8.30;99.90;;;;;;5011052;28;21026;-77
2023/01/14 01:53:10;;;;;;;15.10;4.80;;;8.30;99.90;;;;;;5014972;28;20469;-76
2023/01/14 01:55:39;;;;;;;18.80;5.07;;;8.20;99.90;;;;;;5014870;28;20465;-77
2023/01/14 01:58:07;;;;;;;18.73;5.90;;;8.30;99.90;;;;;;5014429;28;20528;-76
2023/01/14 02:00:34;;;;;;;21.63;6.10;;;8.30;99.90;;;;;;5013386;28;20442;-76
2023/01/14 02:03:04;;;;;;;24.53;6.50;;;8.30;99.90;;;;;;5013498;28;20478;-75
2023/01/14 02:05:32;;;;;;;22.97;4.77;;;8.30;99.90;;;;;;5013148;28;20461;-76
2023/01/14 02:08:00;;;;;;;24.70;4.17;;;8.20;99.90;;;;;;5014206;28;20533;-76
2023/01/14 02:10:40;;;;;;;18.10;4.67;;;8.20;99.90;;;;;;5017515;28;20464;-77
2023/01/14 02:13:27;;;;;;;22.60;5.03;;;8.10;99.90;;;;;;5014634;28;20529;-77
2023/01/14 02:16:07;;;;;;;19.67;4.20;;;8.00;99.90;;;;;;5013384;28;20459;-77
2023/01/14 02:18:55;;;;;;;24.93;4.10;;;7.90;99.90;;;;;;5014575;28;20484;-76
2023/01/14 02:21:28;;;;;;;13.90;3.67;;;7.80;99.90;;;;;;5009227;28;20484;-77
2023/01/14 02:24:28;;;;;;;17.70;4.30;;;7.70;99.90;;;;;;5012241;28;20513;-76
2023/01/14 02:27:28;;;;;;;17.73;3.90;;;7.70;99.90;;;;;;5009345;28;20471;-77
2023/01/14 02:30:38;;;;;;;24.07;4.90;;;7.80;99.90;;;;;;4991889;28;20462;-76
2023/01/14 02:33:25;;;;;;;13.33;4.30;;;7.80;99.90;;;;;;4928482;29;21055;-77
2023/01/14 02:35:56;;;;;;;13.80;3.40;;;7.70;99.90;;;;;;4933337;29;20468;-76
2023/01/14 02:38:38;;;;;;;21.67;4.50;;;7.60;99.90;;;;;;4983549;28;20484;-76
2023/01/14 02:41:12;;;;;;;18.20;6.33;;;7.40;99.90;;;;;;5000974;28;20452;-76
2023/01/14 02:46:34;;;;;;;17.37;3.27;;;7.40;99.90;;;;;;5013609;28;20531;-79
2023/01/14 02:49:03;;;;;;;21.43;4.23;;;7.30;99.90;;;;;;5011337;28;20456;-78
2023/01/14 02:51:31;;;;;;;9.93;3.10;;;7.30;99.90;;;;;;5017957;28;21090;-79
2023/01/14 02:53:58;;;;;;;27.63;4.10;;;7.20;99.90;;;;;;5011342;28;20503;-79
2023/01/14 02:56:26;;;;;;;11.40;4.23;;;7.20;99.90;;;;;;5002650;28;20534;-78
2023/01/14 02:59:20;;;;;;;14.13;3.43;;;7.10;99.90;;;;;;5015140;28;20538;-78
2023/01/14 03:02:32;;;;;;;20.87;4.27;;;7.20;99.90;;;;;;5013533;28;20450;-78
2023/01/14 03:05:15;;;;;;;14.27;3.73;;;7.20;99.90;;;;;;4933116;29;20462;-77
2023/01/14 03:07:47;;;;;;;18.97;3.93;;;7.30;99.90;;;;;;4933161;29;20886;-78
2023/01/14 03:10:21;;;;;;;9.10;3.20;;;7.40;99.90;;;;;;4986907;28;20531;-79
2023/01/14 03:12:55;;;;;;;15.13;4.10;;;7.40;99.90;;;;;;5011317;28;20505;-78
2023/01/14 03:15:29;;;;;;;14.03;3.43;;;7.30;99.90;;;;;;5015487;28;20449;-77
2023/01/14 03:18:02;;;;;;;14.67;4.10;;;7.30;99.90;;;;;;5012208;28;20457;-79
2023/01/14 03:20:32;;;;;;;20.97;3.53;;;7.40;99.90;;;;;;5007406;28;20480;-79
2023/01/14 03:23:05;;;;;;;19.10;5.43;;;7.30;99.90;;;;;;5013381;28;20473;-78
2023/01/14 03:25:36;;;;;;;11.50;3.70;;;7.30;99.90;;;;;;5012487;28;20537;-78
2023/01/14 03:28:07;;;;;;;11.07;3.33;;;7.30;99.90;;;;;;5012471;28;20559;-80
2023/01/14 03:30:38;;;;;;;12.50;3.90;;;7.30;99.90;;;;;;5022114;28;20481;-79
2023/01/14 03:33:11;;;;;;;11.23;2.83;;;7.30;99.90;;;;;;5011849;28;20478;-79
2023/01/14 03:35:41;;;;;;;21.83;4.07;;;7.40;99.90;;;;;;5016320;28;20481;-79
2023/01/14 03:38:13;;;;;;;23.07;4.60;;;7.40;99.90;;;;;;5009135;28;20545;-79
2023/01/14 03:40:42;;;;;;;16.50;4.57;;;7.40;99.90;;;;;;4994849;28;20554;-78
2023/01/14 03:43:16;;;;;;;17.27;3.83;;;7.50;99.90;;;;;;4996550;28;20551;-78
2023/01/14 03:45:45;;;;;;;10.70;3.60;;;7.30;99.90;;;;;;4995611;28;20461;-79
2023/01/14 03:48:13;;;;;;;9.77;4.00;;;7.30;99.90;;;;;;5012504;28;20462;-78
2023/01/14 03:50:48;;;;;;;16.80;4.93;;;7.20;99.90;;;;;;5014529;28;20450;-78
2023/01/14 03:53:24;;;;;;;13.10;4.63;;;7.20;99.90;;;;;;5012284;28;20484;-79
2023/01/14 03:56:00;;;;;;;17.10;3.50;;;7.10;99.90;;;;;;5015315;28;20468;-79
2023/01/14 03:58:38;;;;;;;18.77;4.17;;;7.10;99.90;;;;;;5014375;28;20474;-79
2023/01/14 04:01:10;;;;;;;25.70;3.03;;;7.00;99.90;;;;;;5014626;28;20450;-78
2023/01/14 04:03:39;;;;;;;18.77;4.27;;;7.00;99.90;;;;;;5012893;28;20485;-79
2023/01/14 04:06:08;;;;;;;14.17;2.83;;;7.00;99.90;;;;;;5015680;28;20470;-78
2023/01/14 04:08:35;;;;;;;18.43;3.73;;;7.10;99.90;;;;;;5014603;28;20956;-78
2023/01/14 04:11:01;;;;;;;26.37;4.80;;;7.10;99.90;;;;;;5014260;28;20548;-79
2023/01/14 04:16:12;;;;;;;11.00;3.17;;;7.30;99.90;;;;;;5014969;28;20433;-79
2023/01/14 04:18:41;;;;;;;21.63;3.77;;;7.30;99.90;;;;;;5015196;28;20490;-78
2023/01/14 04:21:07;;;;;;;17.77;4.90;;;7.30;99.90;;;;;;5014147;28;20865;-78
2023/01/14 04:23:34;;;;;;;17.03;4.07;;;7.30;99.90;;;;;;5014851;28;20570;-79
2023/01/14 04:26:01;;;;;;;14.10;2.60;;;7.30;99.90;;;;;;5015272;28;20995;-79
2023/01/14 04:28:28;;;;;;;17.47;4.30;;;7.30;99.90;;;;;;5010519;28;20456;-79
2023/01/14 04:30:55;;;;;;;14.80;3.77;;;7.30;99.90;;;;;;5014075;28;20466;-79
2023/01/14 04:33:23;;;;;;;12.60;2.57;;;7.30;99.90;;;;;;5007339;28;20502;-79
2023/01/14 04:35:51;;;;;;;19.47;3.43;;;7.30;99.90;;;;;;5002750;28;20982;-78
2023/01/14 04:38:20;;;;;;;22.20;6.00;;;7.20;99.90;;;;;;5018251;28;20485;-79
2023/01/14 04:40:49;;;;;;;15.87;4.07;;;7.20;99.90;;;;;;5018807;28;20580;-79
2023/01/14 04:43:15;;;;;;;12.10;2.90;;;7.20;99.90;;;;;;5018870;28;20477;-79
2023/01/14 04:45:41;;;;;;;11.33;3.13;;;7.20;99.90;;;;;;5018839;28;20906;-79
2023/01/14 04:48:08;;;;;;;9.37;3.00;;;7.20;99.90;;;;;;5019215;28;20203;-79
2023/01/14 04:50:36;;;;;;;18.13;3.43;;;7.10;99.90;;;;;;5017804;28;20449;-79
2023/01/14 04:53:10;;;;;;;18.37;3.87;;;7.10;99.90;;;;;;5019030;28;20512;-79
2023/01/14 04:55:39;;;;;;;10.50;2.47;;;7.10;99.90;;;;;;5018794;28;20544;-78
2023/01/14 04:58:07;;;;;;;15.37;3.63;;;7.20;99.90;;;;;;5018144;28;20454;-78
2023/01/14 05:00:34;;;;;;;11.40;3.23;;;7.20;99.90;;;;;;5017386;28;20631;-78
2023/01/14 05:03:03;;;;;;;16.30;3.23;;;7.20;99.90;;;;;;5017084;28;20580;-78
2023/01/14 05:05:30;;;;;;;15.20;3.00;;;7.20;99.90;;;;;;5018113;28;20507;-78
2023/01/14 05:07:58;;;;;;;10.83;3.37;;;7.20;99.90;;;;;;5018515;28;20461;-78
2023/01/14 05:10:27;;;;;;;18.73;3.50;;;7.10;99.90;;;;;;5019272;28;20888;-78
2023/01/14 05:12:56;;;;;;;17.60;3.70;;;7.10;99.90;;;;;;5018608;28;20477;-78
2023/01/14 05:15:24;;;;;;;15.70;3.10;;;7.10;99.90;;;;;;5023259;28;20456;-78
2023/01/14 05:17:51;;;;;;;21.57;4.60;;;7.10;99.90;;;;;;5029267;28;20493;-77
2023/01/14 05:20:18;;;;;;;20.80;3.80;;;7.10;99.90;;;;;;5023055;28;20488;-78
2023/01/14 05:22:45;;;;;;;13.73;3.23;;;7.10;99.90;;;;;;5024038;28;20476;-78
2023/01/14 05:25:12;;;;;;;13.50;3.40;;;7.10;99.90;;;;;;5023912;28;20457;-77
2023/01/14 05:27:40;;;;;;;15.07;3.27;;;7.10;99.90;;;;;;5025397;28;20460;-77
2023/01/14 05:30:09;;;;;;;11.90;3.63;;;7.10;99.90;;;;;;5019259;28;20833;-78
2023/01/14 05:32:35;;;;;;;9.17;3.00;;;7.10;99.90;;;;;;5014305;28;20472;-77
2023/01/14 05:35:02;;;;;;;15.90;3.43;;;7.10;99.90;;;;;;5016080;28;20500;-77
2023/01/14 05:37:29;;;;;;;15.27;3.00;;;7.20;99.90;;;;;;5016574;28;20460;-77
2023/01/14 05:39:56;;;;;;;20.83;4.33;;;7.20;99.90;;;;;;5015234;28;20491;-77
2023/01/14 05:47:55;;;;;;;10.53;2.97;;;7.20;99.90;;;;;;5010306;28;20456;-78
2023/01/14 05:50:22;;;;;;;19.77;3.63;;;7.20;99.90;;;;;;5013969;28;20554;-77
2023/01/14 05:52:48;;;;;;;17.23;3.30;;;7.20;99.90;;;;;;5038990;22;21249;-77
2023/01/14 05:55:15;;;;;;;20.90;3.00;;;7.20;99.90;;;;;;5026921;28;20449;-77
2023/01/14 05:57:42;;;;;;;12.13;2.33;;;7.20;99.90;;;;;;5033514;28;20459;-78
2023/01/14 06:06:20;;;;;;;10.70;2.53;;;7.20;99.90;;;;;;5032849;28;20494;-77
2023/01/14 06:08:30;;;;;;;14.33;2.17;;;7.30;99.90;;;;;;5029360;28;20484;-80
2023/01/14 06:10:58;;;;;;;13.10;3.40;;;7.30;99.90;;;;;;5033506;28;20533;-77
2023/01/14 06:13:25;;;;;;;4.57;1.80;;;7.30;99.90;;;;;;5033167;28;20587;-76
2023/01/14 06:15:55;;;;;;;8.50;2.40;;;7.30;99.90;;;;;;5035053;28;20516;-79
2023/01/14 06:18:23;;;;;;;7.73;2.07;;;7.30;99.90;;;;;;5035066;28;20461;-77
2023/01/14 06:20:50;;;;;;;15.33;2.70;;;7.30;99.90;;;;;;5038533;28;20483;-79
2023/01/14 06:23:18;;;;;;;12.17;2.83;;;7.30;99.90;;;;;;5036730;28;20486;-80
2023/01/14 06:25:45;;;;;;;15.90;3.23;;;7.30;99.90;;;;;;5037568;28;20452;-79
2023/01/14 06:28:13;;;;;;;13.57;3.10;;;7.30;99.90;;;;;;5037969;28;20522;-80
2023/01/14 06:30:40;;;;;;;12.83;2.70;;;7.30;99.90;;;;;;5038665;28;20535;-79
2023/01/14 06:33:09;;;;;;;9.07;1.90;;;7.30;99.90;;;;;;5050504;28;20469;-79
2023/01/14 06:35:41;;;;;;;11.77;3.40;;;7.30;99.90;;;;;;5038227;28;20448;-78
2023/01/14 06:38:07;;;;;;;10.80;3.17;;;7.20;99.90;;;;;;5036253;28;20582;-80
2023/01/14 06:40:34;;;;;;;10.30;2.57;;;7.20;99.90;;;;;;5031083;28;20484;-80
2023/01/14 06:43:01;;;;;;;10.97;3.47;;;7.20;99.90;;;;;;5033134;28;20484;-79
2023/01/14 06:45:28;;;;;;;9.70;3.03;;;7.20;99.90;;;;;;5033505;28;20980;-80
2023/01/14 06:47:54;;;;;;;11.30;2.27;;;7.30;99.90;;;;;;5025827;28;20973;-80
2023/01/14 06:50:23;;;;;;;7.93;2.40;;;7.30;99.90;;;;;;5028551;28;20449;-80
2023/01/14 06:52:52;;;;;;;7.70;2.40;;;7.30;99.90;;;;;;5031802;28;20572;-83
2023/01/14 06:55:19;;;;;;;5.90;2.07;;;7.30;99.90;;;;;;5032029;28;20452;-80
2023/01/14 06:57:46;;;;;;;12.00;2.60;;;7.30;99.90;;;;;;5032926;28;20537;-79
2023/01/14 07:00:14;;;;;;;9.90;2.20;;;7.40;99.90;;;;;;5023753;28;20485;-79
2023/01/14 07:02:41;;;;;;;13.83;2.77;;;7.50;99.90;;;;;;5031519;28;20461;-80
2023/01/14 07:05:08;;;;;;;9.23;2.20;;;7.50;99.90;;;;;;5023803;28;20822;-78
2023/01/14 07:07:37;;;;;;;10.73;2.73;;;7.60;99.90;;;;;;5021010;28;20451;-80
2023/01/14 07:10:05;;;;;;;7.17;2.00;;;7.60;99.90;;;;;;5019700;28;20453;-78
2023/01/14 07:12:32;;;;;;;12.27;2.30;;;7.70;99.90;;;;;;5031638;28;21266;-78
2023/01/14 07:14:58;;;;;;;13.43;3.07;;;7.60;99.90;;;;;;5031474;28;20460;-78
2023/01/14 07:17:25;;;;;;;7.20;2.33;;;7.60;99.90;;;;;;5034691;28;20629;-79
2023/01/14 07:19:52;;;;;;;10.20;2.53;;;7.70;99.90;;;;;;5039420;28;20563;-79
2023/01/14 07:22:19;;;;;;;18.13;2.77;;;7.70;99.90;;;;;;5031424;28;20460;-78
2023/01/14 07:24:47;;;;;;;10.10;2.00;;;7.70;99.90;;;;;;5034834;28;20497;-79
2023/01/14 07:27:14;;;;;;;10.37;2.97;;;7.70;99.90;;;;;;5038790;28;20470;-80
2023/01/14 07:29:41;;;;;;;7.37;1.80;;;7.80;99.90;;;;;;5038681;28;20453;-80
2023/01/14 07:32:07;;;;;;;9.30;3.03;;;7.80;99.90;;;;;;5040686;28;20962;-80
2023/01/14 07:34:34;;;;;;;10.00;2.33;;;7.80;99.90;;;;;;5039196;28;20539;-78
2023/01/14 07:37:01;;;;;;;6.97;1.63;;;7.80;99.90;;;;;;5036075;28;20937;-79
2023/01/14 07:39:28;;;;;;;11.20;2.70;;;7.70;99.90;;;;;;5037945;28;20551;-79
2023/01/14 07:41:56;;;;;;;16.10;1.73;;;7.70;99.90;;;;;;5041166;28;20463;-80
2023/01/14 07:44:25;;;;;;;20.30;3.30;;;7.60;99.90;;;;;;5044965;28;20494;-79
2023/01/14 07:46:53;;;;;;;12.20;2.50;;;7.50;99.90;;;;;;5044463;28;20453;-79
2023/01/14 07:49:20;;;;;;;12.60;3.27;;;7.50;99.90;;;;;;5042342;28;20505;-79
2023/01/14 07:51:47;;;;;;;13.60;3.47;;;7.40;99.90;;;;;;5043503;28;21003;-79
2023/01/14 07:54:14;;;;;;;5.57;1.90;;;7.30;99.90;;;;;;5042394;28;20480;-78
2023/01/14 07:56:41;;;;;;;8.53;2.00;;;7.30;99.90;;;;;;5043791;28;20493;-79
2023/01/14 07:59:10;;;;;;;11.23;2.30;;;7.20;99.90;;;;;;5037459;28;20467;-78
2023/01/14 08:01:37;;;;;;;12.17;2.27;;;7.20;99.90;;;;;;5036674;28;20503;-78
2023/01/14 08:04:04;;;;;;;13.80;2.37;;;7.10;99.90;;;;;;5039459;28;20482;-81
2023/01/14 08:06:31;;;;;;;5.77;2.80;;;7.10;99.90;;;;;;5038157;28;20448;-78
2023/01/14 08:09:01;;;;;;;8.20;2.50;;;7.10;99.90;;;;;;5035250;28;20459;-79
2023/01/14 08:11:28;;;;;;;8.27;2.30;;;7.00;99.90;;;;;;5035335;28;20451;-80
2023/01/14 08:13:55;;;;;;;6.27;1.83;;;7.00;99.90;;;;;;5037551;28;20473;-79
2023/01/14 08:16:23;;;;;;;5.70;2.10;;;7.00;99.90;;;;;;5037078;28;20462;-79
2023/01/14 08:18:50;;;;;;;10.70;2.40;;;7.00;99.90;;;;;;5038355;28;20473;-79
2023/01/14 08:21:17;;;;;;;12.47;2.60;;;7.00;99.90;;;;;;5035259;28;20512;-79
2023/01/14 08:23:44;;;;;;;5.93;2.70;;;7.00;99.90;;;;;;5035869;28;20472;-79
2023/01/14 08:26:12;;;;;;;10.07;2.67;;;6.90;99.90;;;;;;5036700;28;20537;-79
2023/01/14 08:28:40;;;;;;;12.00;2.20;;;6.90;99.90;;;;;;5035491;28;20457;-79
2023/01/14 08:31:10;;;;;;;5.97;2.20;;;7.00;99.90;;;;;;5034733;28;20521;-80
2023/01/14 08:33:39;;;;;;;9.83;2.40;;;7.00;99.90;;;;;;5037846;28;20476;-79
2023/01/14 08:36:09;;;;;;;7.23;1.80;;;6.90;99.90;;;;;;5036430;28;20518;-79
2023/01/14 08:38:38;;;;;;;8.00;1.90;;;7.00;99.90;;;;;;5034634;28;20457;-80
2023/01/14 08:41:05;;;;;;;10.23;2.57;;;7.00;99.90;;;;;;5032794;28;20491;-80
2023/01/14 08:43:32;;;;;;;14.97;2.63;;;7.00;99.90;;;;;;5045215;28;20471;-80
2023/01/14 08:46:00;;;;;;;9.50;2.40;;;7.00;99.90;;;;;;5050234;28;20562;-79
2023/01/14 08:48:27;;;;;;;11.83;2.00;;;7.00;99.90;;;;;;5034201;28;20477;-79
2023/01/14 08:51:00;;;;;;;14.53;2.60;;;7.00;99.90;;;;;;5034416;28;20466;-79
2023/01/14 08:53:27;;;;;;;14.00;2.60;;;7.00;99.90;;;;;;5033338;28;21008;-79
2023/01/14 08:55:56;;;;;;;15.93;2.77;;;7.00;99.90;;;;;;5028848;28;20472;-79
2023/01/14 08:58:23;;;;;;;17.30;3.50;;;7.00;99.90;;;;;;5024935;28;20457;-80
2023/01/14 09:00:50;;;;;;;11.20;2.43;;;7.00;99.90;;;;;;5034023;28;20498;-80
2023/01/14 09:03:17;;;;;;;5.97;2.00;;;7.10;99.90;;;;;;5034105;28;20467;-80
2023/01/14 09:05:44;;;;;;;15.37;2.50;;;7.10;99.90;;;;;;5033154;28;20527;-80
2023/01/14 09:19:13;;;;;;;2.90;1.80;;;7.20;99.90;;;;;;5026314;28;21012;-78
2023/01/14 09:21:40;;;;;;;11.53;2.83;;;7.20;99.90;;;;;;5027562;28;20496;-80
2023/01/14 09:24:08;;;;;;;7.73;3.00;;;7.20;99.90;;;;;;5038594;28;21012;-80
2023/01/14 09:26:35;;;;;;;7.10;1.80;;;7.30;99.90;;;;;;5037584;28;20459;-79
2023/01/14 09:29:02;;;;;;;12.33;2.10;;;7.30;99.90;;;;;;5038203;28;20543;-78
2023/01/14 09:31:29;;;;;;;8.77;2.87;;;7.30;99.90;;;;;;5037418;28;20536;-80
2023/01/14 09:33:56;;;;;;;10.17;2.70;;;7.30;99.90;;;;;;5038218;28;20851;-78
2023/01/14 09:36:22;;;;;;;6.57;2.30;;;7.40;99.90;;;;;;5038027;28;20457;-80
2023/01/14 09:38:49;;;;;;;5.80;2.73;;;7.40;99.90;;;;;;5040281;28;20462;-81
2023/01/14 09:41:27;;;;;;;7.17;2.00;;;7.40;99.90;;;;;;5036740;28;20606;-80
2023/01/14 09:43:55;;;;;;;12.37;2.10;;;7.40;99.90;;;;;;5036620;28;20473;-80
2023/01/14 09:46:24;;;;;;;10.53;2.10;;;7.50;99.90;;;;;;5026769;28;20492;-77
2023/01/14 09:48:52;;;;;;;8.00;2.20;;;7.60;99.90;;;;;;5031182;28;20456;-80
2023/01/14 09:51:55;;;;;;;3.90;1.50;;;7.70;99.90;;;;;;5035337;28;20448;-80
2023/01/14 09:54:30;;;;;;;6.30;1.43;;;7.80;99.90;;;;;;5035790;28;20583;-78
2023/01/14 09:57:06;;;;;;;4.90;1.97;;;7.80;99.90;;;;;;5027769;28;20823;-78
2023/01/14 09:59:39;;;;;;;4.40;1.53;;;7.90;99.90;;;;;;5034746;28;20459;-76
